Time;durP1;ratioP1;P1;durP2;ratioP2;P2;SDS_P1;SDS_P2;PMS_P1;PMS_P2;Temp;Humidity;BMP_temperature;BMP_pressure;BME280_temperature;BME280_humidity;BME280_pressure;Samples;Min_cycle;Max_cycle;Signal;HPM_P1;HPM_P2
2022/09/21 00:01:45;;;;;;;11.93;2.40;;;8.90;99.90;;;9.77;100.00;98991.28;5029806;28;20490;-91
2022/09/21 00:04:14;;;;;;;4.47;2.10;;;8.90;99.90;;;9.79;100.00;98986.75;5027929;28;20569;-91
2022/09/21 00:06:44;;;;;;;9.97;2.10;;;8.80;99.90;;;9.73;100.00;98993.41;5025745;28;20494;-90
2022/09/21 00:09:15;;;;;;;5.70;2.40;;;8.70;99.90;;;9.76;100.00;98987.84;5030163;28;20986;-90
2022/09/21 00:11:46;;;;;;;5.97;2.20;;;8.70;99.90;;;9.70;100.00;98990.28;5028273;28;20569;-90
2022/09/21 00:14:18;;;;;;;4.90;1.97;;;8.80;99.90;;;9.66;100.00;98981.13;5027919;28;20524;-90
2022/09/21 00:16:48;;;;;;;7.20;2.73;;;8.80;99.90;;;9.64;100.00;98988.31;5029203;28;20482;-90
2022/09/21 00:19:19;;;;;;;7.60;2.27;;;8.70;99.90;;;9.61;100.00;98985.00;5021417;28;20492;-89
2022/09/21 00:21:49;;;;;;;3.67;2.20;;;8.60;99.90;;;9.58;100.00;98980.13;5023876;28;20498;-90
2022/09/21 00:24:19;;;;;;;2.57;2.00;;;8.60;99.90;;;9.59;100.00;98984.38;5029465;28;20810;-91
2022/09/21 00:26:48;;;;;;;6.40;2.00;;;8.70;99.90;;;9.55;100.00;98984.84;5036531;28;20444;-90
2022/09/21 00:29:18;;;;;;;2.87;2.13;;;8.60;99.90;;;9.49;100.00;98988.91;5031703;28;20561;-91
2022/09/21 00:31:48;;;;;;;5.17;1.97;;;8.50;99.90;;;9.50;100.00;98982.72;5030352;28;20747;-90
2022/09/21 00:34:19;;;;;;;6.53;2.20;;;8.50;99.90;;;9.50;100.00;98987.13;5030035;28;20447;-90
2022/09/21 00:36:53;;;;;;;4.10;2.40;;;8.40;99.90;;;9.39;100.00;98985.59;5027093;28;20504;-90
2022/09/21 00:39:24;;;;;;;5.00;2.37;;;8.40;99.90;;;9.35;100.00;98984.25;5026738;28;20987;-90
2022/09/21 00:41:53;;;;;;;3.73;2.20;;;8.30;99.90;;;9.29;100.00;98987.50;5029182;28;20553;-90
2022/09/21 00:44:33;;;;;;;10.33;2.20;;;8.20;99.90;;;9.28;100.00;98998.09;5028389;28;20451;-91
2022/09/21 00:47:13;;;;;;;2.00;1.50;;;8.30;99.90;;;9.30;100.00;98991.72;5024106;28;20455;-90
2022/09/21 00:49:47;;;;;;;4.13;2.07;;;8.20;99.90;;;9.29;100.00;98989.28;5022215;28;20463;-91
2022/09/21 00:52:19;;;;;;;2.90;2.00;;;8.20;99.90;;;9.18;100.00;98997.38;5025222;28;20479;-91
2022/09/21 00:55:02;;;;;;;3.67;2.37;;;8.20;99.90;;;9.17;100.00;98998.34;5023702;28;20459;-91
2022/09/21 00:57:36;;;;;;;2.33;1.90;;;8.30;99.90;;;9.19;100.00;98997.25;5024758;28;20517;-91
2022/09/21 01:00:09;;;;;;;8.50;2.70;;;8.30;99.90;;;9.13;100.00;98994.44;5029105;28;20470;-91
2022/09/21 01:02:43;;;;;;;4.40;2.00;;;8.20;99.90;;;9.14;100.00;98999.47;5025839;28;20840;-90
2022/09/21 01:05:12;;;;;;;3.43;1.60;;;8.10;99.90;;;9.05;100.00;99003.03;5025973;28;20466;-91
2022/09/21 01:07:46;;;;;;;3.40;2.07;;;8.10;99.90;;;8.94;100.00;98995.44;5027831;28;20501;-91
2022/09/21 01:10:19;;;;;;;4.90;2.40;;;8.00;99.90;;;8.89;100.00;99010.72;5034750;28;20438;-90
2022/09/21 01:13:07;;;;;;;4.43;1.90;;;8.10;99.90;;;8.89;100.00;99010.72;5028995;28;20944;-91
2022/09/21 01:15:51;;;;;;;2.80;2.03;;;8.00;99.90;;;8.91;100.00;99014.00;5030928;28;20517;-91
2022/09/21 01:18:35;;;;;;;8.57;2.37;;;8.00;99.90;;;8.93;100.00;99007.66;5032444;28;20574;-91
2022/09/21 01:21:20;;;;;;;3.47;2.00;;;7.90;99.90;;;8.98;100.00;99009.81;5031010;28;20465;-91
2022/09/21 01:24:30;;;;;;;4.63;2.10;;;7.90;99.90;;;8.98;100.00;99007.22;5029473;28;20465;-90
2022/09/21 01:27:45;;;;;;;5.33;1.60;;;7.90;99.90;;;8.91;100.00;99006.19;5034225;28;20518;-91
2022/09/21 01:30:20;;;;;;;5.00;1.97;;;7.80;99.90;;;8.87;100.00;99004.84;5019352;28;20552;-90
2022/09/21 01:32:59;;;;;;;3.77;2.20;;;8.00;99.90;;;8.85;100.00;99002.38;5039426;28;20533;-91
2022/09/21 01:35:33;;;;;;;11.10;2.10;;;7.90;99.90;;;8.86;100.00;99003.19;5026560;28;20477;-90
2022/09/21 01:38:08;;;;;;;6.70;1.87;;;8.00;99.90;;;8.81;100.00;99005.47;5029939;28;20497;-90
2022/09/21 01:40:43;;;;;;;3.43;1.87;;;8.00;99.90;;;8.77;100.00;99006.72;5028719;28;20482;-90
2022/09/21 01:43:24;;;;;;;3.10;1.90;;;8.00;99.90;;;8.67;100.00;98998.19;5034656;28;20462;-90
2022/09/21 01:46:00;;;;;;;2.10;1.90;;;8.00;99.90;;;8.64;100.00;99006.31;5029097;28;20561;-90
2022/09/21 01:48:39;;;;;;;4.90;1.80;;;8.00;99.90;;;8.55;100.00;98998.41;5028766;28;20460;-91
2022/09/21 01:51:12;;;;;;;2.27;1.93;;;7.80;99.90;;;8.49;100.00;99001.63;5032342;28;20473;-90
2022/09/21 01:53:48;;;;;;;1.63;1.53;;;7.80;99.90;;;8.50;100.00;99003.25;5029335;28;20545;-91
2022/09/21 01:56:25;;;;;;;4.43;1.77;;;7.80;99.90;;;8.41;100.00;99003.34;5029377;28;20551;-91
2022/09/21 01:59:03;;;;;;;2.50;2.07;;;7.60;99.90;;;8.36;100.00;99006.41;5032909;28;20462;-91
2022/09/21 02:01:42;;;;;;;1.97;1.53;;;7.50;99.90;;;8.24;100.00;99007.56;5029554;28;20466;-91
2022/09/21 02:04:15;;;;;;;4.10;2.20;;;7.30;99.90;;;8.30;100.00;99004.38;5029737;28;20523;-90
2022/09/21 02:06:49;;;;;;;4.50;2.40;;;7.40;99.90;;;8.39;100.00;98995.69;5029934;28;20579;-91
2022/09/21 02:09:19;;;;;;;2.77;2.57;;;7.40;99.90;;;8.41;100.00;99003.34;5026018;28;20521;-91
2022/09/21 02:11:47;;;;;;;7.27;1.93;;;7.50;99.90;;;8.39;100.00;98998.28;5029321;28;20498;-91
2022/09/21 02:14:22;;;;;;;5.73;2.30;;;7.50;99.90;;;8.39;100.00;98993.06;5027796;28;20469;-91
2022/09/21 02:17:13;;;;;;;3.63;2.73;;;7.50;99.90;;;8.30;100.00;98996.56;5025634;28;20543;-90
2022/09/21 02:19:53;;;;;;;2.37;1.80;;;7.50;99.90;;;8.17;100.00;98996.09;5029850;28;20501;-90
2022/09/21 02:22:33;;;;;;;12.30;2.37;;;7.30;99.90;;;8.08;100.00;98991.78;5029575;28;20470;-91
2022/09/21 02:25:12;;;;;;;3.00;1.93;;;7.40;99.90;;;8.12;100.00;98998.34;5028274;28;20508;-90
2022/09/21 02:27:55;;;;;;;3.70;2.40;;;7.30;99.90;;;8.18;100.00;99002.94;5030830;28;20485;-91
2022/09/21 02:30:26;;;;;;;3.23;1.70;;;7.30;99.90;;;8.17;100.00;98997.88;5030396;28;20500;-91
2022/09/21 02:33:06;;;;;;;2.70;1.90;;;7.20;99.90;;;8.16;100.00;98994.44;5031168;28;20457;-91
2022/09/21 02:35:43;;;;;;;4.07;2.30;;;7.10;99.90;;;8.18;100.00;98994.31;5035224;28;20463;-91
2022/09/21 02:38:25;;;;;;;3.60;1.60;;;7.20;99.90;;;8.16;100.00;99001.47;5026833;28;21004;-91
2022/09/21 02:41:07;;;;;;;8.00;2.07;;;7.10;99.90;;;8.09;100.00;98998.59;5028800;28;20458;-91
2022/09/21 02:43:45;;;;;;;5.30;1.97;;;7.10;99.90;;;8.08;100.00;99002.19;5033655;28;20438;-91
2022/09/21 02:46:22;;;;;;;1.90;1.70;;;7.10;99.90;;;8.01;100.00;99001.97;5047074;28;20542;-91
2022/09/21 02:48:57;;;;;;;2.43;1.70;;;6.90;99.90;;;8.02;100.00;99007.97;5029318;28;20465;-91
2022/09/21 02:51:32;;;;;;;10.77;2.03;;;7.10;99.90;;;8.05;100.00;99000.69;5032153;28;20462;-91
2022/09/21 02:54:06;;;;;;;8.13;1.80;;;7.10;99.90;;;8.04;100.00;99004.28;5032040;28;20462;-89
2022/09/21 02:56:38;;;;;;;14.63;1.70;;;7.10;99.90;;;8.03;100.00;98999.19;5028647;28;20448;-90
2022/09/21 02:59:07;;;;;;;3.53;2.10;;;7.00;99.90;;;7.98;100.00;99001.44;5031711;28;20513;-90
2022/09/21 03:01:40;;;;;;;4.10;1.90;;;7.20;99.90;;;7.99;100.00;99003.88;5028947;28;20877;-90
2022/09/21 03:04:11;;;;;;;3.70;1.47;;;7.20;99.90;;;8.03;100.00;98999.19;5026975;28;20454;-89
2022/09/21 03:06:41;;;;;;;2.57;1.70;;;7.20;99.90;;;8.04;100.00;98998.25;5025547;28;20514;-88
2022/09/21 03:09:11;;;;;;;7.60;1.97;;;7.10;99.90;;;8.04;100.00;98996.47;5026244;28;20516;-89
2022/09/21 03:11:41;;;;;;;2.67;1.50;;;7.10;99.90;;;7.97;100.00;98989.38;5024686;28;20542;-89
2022/09/21 03:14:10;;;;;;;2.00;1.40;;;7.20;99.90;;;7.92;100.00;98994.19;5027021;28;21046;-89
2022/09/21 03:16:40;;;;;;;2.00;1.37;;;7.20;99.90;;;7.95;100.00;98993.91;5028411;28;20878;-89
2022/09/21 03:19:12;;;;;;;3.03;1.43;;;7.00;99.90;;;7.89;100.00;98994.50;5026971;28;20463;-90
2022/09/21 03:21:42;;;;;;;5.03;1.53;;;7.10;99.90;;;7.91;100.00;98992.56;5026313;28;20548;-88
2022/09/21 03:24:12;;;;;;;1.70;1.60;;;7.00;99.90;;;7.91;100.00;98998.56;5030924;28;20488;-89
2022/09/21 03:27:01;;;;;;;2.60;1.70;;;6.90;99.90;;;7.94;100.00;98994.88;5029889;28;20457;-89
2022/09/21 03:29:30;;;;;;;3.07;1.47;;;6.90;99.90;;;7.86;100.00;98998.22;5026269;28;20517;-90
2022/09/21 03:31:59;;;;;;;4.20;1.63;;;6.90;99.90;;;7.81;100.00;98999.63;5026648;28;20501;-89
2022/09/21 03:34:33;;;;;;;7.13;1.60;;;6.90;99.90;;;7.82;100.00;99001.25;5026199;28;20467;-89
2022/09/21 03:37:02;;;;;;;2.80;1.50;;;6.90;99.90;;;7.80;100.00;99004.00;5026932;28;20463;-89
2022/09/21 03:39:32;;;;;;;3.60;1.23;;;6.90;99.90;;;7.82;100.00;98989.06;5028297;28;20462;-89
2022/09/21 03:42:00;;;;;;;1.60;1.50;;;6.90;99.90;;;7.80;100.00;98993.59;5024899;28;20450;-89
2022/09/21 03:44:29;;;;;;;4.00;1.80;;;6.80;99.90;;;7.78;100.00;98995.50;5032375;28;20489;-90
2022/09/21 03:46:59;;;;;;;2.70;1.77;;;6.90;99.90;;;7.73;100.00;98994.31;5028504;28;20462;-89
2022/09/21 03:49:31;;;;;;;2.70;2.00;;;6.70;99.90;;;7.72;100.00;99001.31;5025508;28;20504;-90
2022/09/21 03:52:01;;;;;;;3.43;1.57;;;6.90;99.90;;;7.74;100.00;98995.97;5028792;28;20492;-90
2022/09/21 03:54:30;;;;;;;1.53;1.30;;;7.00;99.90;;;7.67;100.00;98997.50;5027441;28;20451;-89
2022/09/21 03:56:58;;;;;;;5.50;1.97;;;7.10;99.90;;;7.67;100.00;99005.31;5024984;28;20466;-89
2022/09/21 03:59:28;;;;;;;2.37;1.80;;;6.90;99.90;;;7.68;100.00;99004.34;5026567;28;20462;-90
2022/09/21 04:01:58;;;;;;;3.43;1.60;;;6.90;99.90;;;7.63;100.00;99003.97;5026555;28;21207;-90
2022/09/21 04:04:29;;;;;;;2.97;1.70;;;6.80;99.90;;;7.52;100.00;98998.00;5027276;28;21044;-90
2022/09/21 04:06:59;;;;;;;2.13;1.40;;;6.80;99.90;;;7.56;100.00;98999.34;5026876;28;20525;-90
2022/09/21 04:09:28;;;;;;;2.00;1.40;;;6.70;99.90;;;7.54;100.00;99006.47;5026450;28;20530;-89
2022/09/21 04:11:56;;;;;;;11.80;1.93;;;6.70;99.90;;;7.57;100.00;99005.34;5025707;28;20514;-89
2022/09/21 04:14:26;;;;;;;4.23;1.50;;;6.70;99.90;;;7.59;100.00;99009.47;5025744;28;20961;-90
2022/09/21 04:16:56;;;;;;;1.70;1.43;;;6.60;99.90;;;7.57;100.00;99011.38;5023271;28;20474;-90
2022/09/21 04:19:25;;;;;;;3.40;1.77;;;6.60;99.90;;;7.57;100.00;99013.97;5026742;28;20496;-90
2022/09/21 04:21:55;;;;;;;4.20;2.10;;;6.50;99.90;;;7.55;100.00;99010.72;5026375;28;20838;-89
2022/09/21 04:24:24;;;;;;;2.27;1.93;;;6.50;99.90;;;7.48;100.00;99006.22;5023451;28;20535;-90
2022/09/21 04:26:53;;;;;;;3.23;1.77;;;6.50;99.90;;;7.40;100.00;99022.53;5026369;28;20477;-88
2022/09/21 04:29:23;;;;;;;1.50;1.40;;;6.50;99.90;;;7.45;100.00;99016.91;5022578;28;20523;-90
2022/09/21 04:31:52;;;;;;;2.10;1.53;;;6.50;99.90;;;7.46;100.00;99021.97;5024699;28;20524;-90
2022/09/21 04:34:21;;;;;;;2.70;1.47;;;6.50;99.90;;;7.48;100.00;99014.84;5011861;28;20513;-89
2022/09/21 04:36:52;;;;;;;3.30;1.40;;;6.50;99.90;;;7.41;100.00;99024.19;5026128;28;20829;-90
2022/09/21 04:39:22;;;;;;;2.67;1.60;;;6.40;99.90;;;7.36;100.00;99026.38;5027325;28;20545;-89
2022/09/21 04:41:53;;;;;;;8.03;1.67;;;6.30;99.90;;;7.34;100.00;99028.31;5027175;28;20446;-89
2022/09/21 04:44:23;;;;;;;1.40;1.30;;;6.50;99.90;;;7.35;100.00;99029.97;5025850;28;20875;-90
2022/09/21 04:46:52;;;;;;;2.07;1.50;;;6.30;99.90;;;7.37;100.00;99029.81;5023656;28;20459;-88
2022/09/21 04:49:22;;;;;;;5.80;1.70;;;6.30;99.90;;;7.41;100.00;99031.16;5044507;28;20461;-90
2022/09/21 04:51:50;;;;;;;3.27;1.60;;;6.30;99.90;;;7.31;100.00;99022.59;5028987;28;20577;-89
2022/09/21 04:54:21;;;;;;;3.53;1.60;;;6.30;99.90;;;7.29;100.00;99030.50;5027660;28;20927;-89
2022/09/21 04:56:51;;;;;;;2.37;1.73;;;6.50;99.90;;;7.28;100.00;99041.06;5038758;28;20526;-90
2022/09/21 04:59:21;;;;;;;3.03;1.47;;;6.50;99.90;;;7.30;100.00;99039.97;5023952;28;21014;-90
2022/09/21 05:01:51;;;;;;;3.83;1.87;;;6.50;99.90;;;7.22;100.00;99029.44;5028123;28;20457;-90
2022/09/21 05:04:20;;;;;;;4.00;1.50;;;6.20;99.90;;;7.19;100.00;99037.53;5022809;28;20791;-90
2022/09/21 05:06:48;;;;;;;2.17;1.60;;;6.40;99.90;;;7.10;100.00;99035.78;5025531;28;20551;-89
2022/09/21 05:12:05;;;;;;;1.87;1.73;;;6.20;99.90;;;7.12;100.00;99052.06;5027112;28;20560;-90
2022/09/21 05:14:33;;;;;;;7.80;1.73;;;6.30;99.90;;;7.11;100.00;99040.03;5029153;28;20489;-90
2022/09/21 05:17:02;;;;;;;1.40;1.30;;;6.20;99.90;;;7.07;100.00;99043.88;5027183;28;20516;-90
2022/09/21 05:19:31;;;;;;;2.17;1.97;;;6.30;99.90;;;7.03;100.00;99043.31;5026927;28;20848;-90
2022/09/21 05:22:02;;;;;;;2.30;1.60;;;6.30;99.90;;;7.05;100.00;99044.00;5026818;28;20448;-90
2022/09/21 05:24:31;;;;;;;6.03;1.93;;;6.10;99.90;;;7.09;100.00;99049.75;5029147;28;20457;-89
2022/09/21 05:27:00;;;;;;;14.07;2.23;;;6.10;99.90;;;7.04;100.00;99049.34;5026651;28;20492;-90
2022/09/21 05:29:32;;;;;;;3.73;1.77;;;6.00;99.90;;;7.04;100.00;99057.16;5022564;28;20480;-89
2022/09/21 05:32:11;;;;;;;4.10;1.70;;;6.20;99.90;;;7.08;100.00;99054.13;5030520;28;20554;-89
2022/09/21 05:34:54;;;;;;;1.80;1.53;;;6.30;99.90;;;7.11;100.00;99055.63;5030089;28;20483;-90
2022/09/21 05:37:44;;;;;;;2.93;1.57;;;6.20;99.90;;;7.15;100.00;99058.78;5025732;28;20470;-89
2022/09/21 05:40:17;;;;;;;2.60;1.60;;;6.20;99.90;;;7.05;100.00;99066.56;5028324;28;21015;-89
2022/09/21 05:42:46;;;;;;;2.97;1.70;;;6.00;99.90;;;7.02;100.00;99069.47;5024399;28;20476;-90
2022/09/21 05:45:21;;;;;;;3.37;1.70;;;6.00;99.90;;;7.03;100.00;99071.94;5028327;28;20508;-90
2022/09/21 05:48:09;;;;;;;7.33;1.70;;;6.20;99.90;;;7.08;100.00;99071.50;5023278;28;20456;-89
2022/09/21 05:50:56;;;;;;;2.23;1.70;;;6.10;99.90;;;7.12;100.00;99070.25;5024116;28;20501;-89
2022/09/21 05:53:50;;;;;;;1.80;1.60;;;6.10;99.90;;;7.04;100.00;99072.75;5026318;28;20896;-90
2022/09/21 05:56:39;;;;;;;2.40;1.90;;;6.10;99.90;;;7.03;100.00;99079.72;5020907;28;20477;-90
2022/09/21 05:59:32;;;;;;;5.50;1.90;;;6.10;99.90;;;7.05;100.00;99074.38;5024197;28;20511;-87
2022/09/21 06:02:16;;;;;;;6.93;2.57;;;6.00;99.90;;;7.01;100.00;99080.84;5022788;28;20560;-89
2022/09/21 06:04:49;;;;;;;5.00;1.93;;;6.10;99.90;;;7.04;100.00;99081.38;5029221;28;20471;-90
2022/09/21 06:07:20;;;;;;;5.50;2.07;;;6.10;99.90;;;7.07;100.00;99085.47;5028239;28;20493;-91
2022/09/21 06:09:49;;;;;;;4.97;2.30;;;6.10;99.90;;;7.02;100.00;99080.69;5027189;28;20567;-90
2022/09/21 06:12:19;;;;;;;8.03;1.97;;;6.20;99.90;;;7.02;100.00;99082.47;5032880;28;20541;-87
2022/09/21 06:14:48;;;;;;;2.40;2.00;;;6.20;99.90;;;7.07;100.00;99077.66;5026976;28;20461;-91
2022/09/21 06:17:19;;;;;;;8.70;2.13;;;6.10;99.90;;;7.11;100.00;99084.25;5022787;28;20505;-83
2022/09/21 06:19:48;;;;;;;5.60;3.57;;;6.10;99.90;;;7.07;100.00;99080.28;5022441;28;20497;-82
2022/09/21 06:22:17;;;;;;;3.37;1.93;;;6.30;99.90;;;7.07;100.00;99088.06;5022600;28;20498;-82
2022/09/21 06:24:46;;;;;;;8.60;2.20;;;6.40;99.90;;;7.04;100.00;99091.78;5024338;28;20457;-82
2022/09/21 06:27:14;;;;;;;12.23;2.20;;;6.30;99.90;;;7.12;100.00;99085.88;5024921;28;20521;-82
2022/09/21 06:29:44;;;;;;;4.40;2.23;;;6.30;99.90;;;7.21;100.00;99085.03;5021200;28;21271;-82
2022/09/21 06:32:12;;;;;;;18.57;2.20;;;6.30;99.90;;;7.22;100.00;99089.25;5023021;28;20500;-82
2022/09/21 06:34:43;;;;;;;7.10;2.70;;;6.30;99.90;;;7.23;100.00;99083.09;5023813;28;21068;-79
2022/09/21 06:37:11;;;;;;;17.53;3.37;;;6.30;99.90;;;7.27;100.00;99092.28;5020380;28;20515;-81
2022/09/21 06:39:40;;;;;;;3.90;2.00;;;6.30;99.90;;;7.29;100.00;99086.94;5020912;28;21330;-81
2022/09/21 06:42:09;;;;;;;5.70;2.20;;;6.30;99.90;;;7.33;100.00;99086.50;5020557;28;20975;-81
2022/09/21 06:44:37;;;;;;;3.53;2.33;;;6.30;99.90;;;7.36;100.00;99096.63;5024022;28;20527;-81
2022/09/21 06:47:06;;;;;;;5.53;2.50;;;6.30;99.90;;;7.38;100.00;99092.13;5021558;28;20501;-81
2022/09/21 06:49:34;;;;;;;6.57;2.83;;;6.40;99.90;;;7.42;100.00;99092.66;5021514;28;20557;-81
2022/09/21 06:52:11;;;;;;;3.40;1.97;;;6.50;99.90;;;7.43;100.00;99089.91;5022352;28;20481;-80
2022/09/21 06:54:41;;;;;;;10.93;2.60;;;6.50;99.90;;;7.46;100.00;99087.00;5021296;28;20466;-81
2022/09/21 06:57:09;;;;;;;3.40;2.13;;;6.50;99.90;;;7.52;100.00;99081.25;5018985;28;20590;-81
2022/09/21 06:59:38;;;;;;;16.03;2.30;;;6.60;99.90;;;7.57;100.00;99092.06;5021887;28;21165;-82
2022/09/21 07:02:10;;;;;;;13.70;2.50;;;6.60;99.90;;;7.59;100.00;99087.53;5021147;28;20465;-81
2022/09/21 07:04:39;;;;;;;4.00;2.83;;;6.70;99.90;;;7.67;100.00;99091.22;5020580;28;20462;-80
2022/09/21 07:07:12;;;;;;;2.50;2.30;;;6.80;99.90;;;7.72;100.00;99091.59;5006614;28;20465;-81
2022/09/21 07:09:41;;;;;;;2.23;2.03;;;6.90;99.90;;;7.77;100.00;99087.63;5021101;28;20490;-80
2022/09/21 07:12:31;;;;;;;4.03;2.40;;;6.90;99.90;;;7.84;100.00;99093.06;5021726;28;20462;-81
2022/09/21 07:14:59;;;;;;;6.13;2.30;;;7.00;99.90;;;7.82;100.00;99085.38;5018018;28;20470;-81
2022/09/21 07:17:32;;;;;;;5.53;2.30;;;6.90;99.90;;;7.87;100.00;99091.00;5020995;28;20462;-81
2022/09/21 07:20:04;;;;;;;5.40;2.60;;;7.00;99.90;;;7.93;100.00;99086.97;5020915;28;21004;-81
2022/09/21 07:22:36;;;;;;;4.70;2.30;;;7.10;99.90;;;7.98;100.00;99092.59;5019823;28;20461;-81
2022/09/21 07:25:07;;;;;;;2.50;2.10;;;7.10;99.90;;;8.02;100.00;99096.53;5020939;28;20891;-81
2022/09/21 07:27:35;;;;;;;30.67;16.07;;;7.20;99.90;;;8.06;100.00;99090.88;5020415;28;20480;-81
2022/09/21 07:30:06;;;;;;;6.93;2.60;;;7.30;99.90;;;8.12;100.00;99092.09;5021169;28;20481;-81
2022/09/21 07:32:36;;;;;;;3.20;2.20;;;7.30;99.90;;;8.20;100.00;99088.75;5020286;28;20473;-82
2022/09/21 07:35:06;;;;;;;4.50;2.40;;;7.40;99.90;;;8.24;100.00;99092.72;5016836;28;20544;-81
2022/09/21 07:37:36;;;;;;;7.10;2.73;;;7.30;99.90;;;8.30;100.00;99087.75;5020146;28;20531;-81
2022/09/21 07:40:06;;;;;;;2.80;2.37;;;7.40;99.90;;;8.34;100.00;99091.72;5022034;28;20482;-81
2022/09/21 07:42:35;;;;;;;4.60;1.80;;;7.40;99.90;;;8.41;100.00;99094.56;5019160;28;20470;-80
2022/09/21 07:45:04;;;;;;;5.40;2.30;;;7.50;99.90;;;8.47;100.00;99091.34;5018714;28;20470;-81
2022/09/21 07:47:33;;;;;;;6.83;2.43;;;7.50;99.90;;;8.51;100.00;99088.31;5019949;28;20478;-81
2022/09/21 07:50:02;;;;;;;5.27;2.60;;;7.60;99.90;;;8.55;100.00;99084.44;5019133;28;20462;-77
2022/09/21 07:52:30;;;;;;;22.37;10.37;;;7.70;99.90;;;8.63;100.00;99085.47;5020225;28;20470;-81
2022/09/21 07:55:00;;;;;;;7.03;3.83;;;7.70;99.90;;;8.71;100.00;99082.97;5021898;28;20496;-81
2022/09/21 08:00:18;;;;;;;5.30;2.27;;;7.90;99.90;;;8.86;100.00;99086.66;5019031;28;20578;-81
2022/09/21 08:02:46;;;;;;;3.33;2.80;;;8.00;99.90;;;8.93;100.00;99085.91;5019551;28;20545;-80
2022/09/21 08:05:15;;;;;;;4.40;2.57;;;8.10;99.90;;;9.01;100.00;99074.72;5019767;28;20964;-81
2022/09/21 08:07:44;;;;;;;8.90;2.40;;;8.10;99.90;;;9.09;100.00;99077.41;5017335;28;20836;-81
2022/09/21 08:10:14;;;;;;;8.50;2.97;;;8.30;99.90;;;9.15;100.00;99074.19;5018191;28;21302;-81
2022/09/21 08:12:43;;;;;;;3.80;2.90;;;8.30;99.90;;;9.23;100.00;99073.44;5022858;28;20959;-81
2022/09/21 08:15:13;;;;;;;4.40;2.33;;;8.40;99.90;;;9.31;100.00;99082.13;5020471;28;20511;-81
2022/09/21 08:18:06;;;;;;;4.83;2.23;;;8.50;99.90;;;9.40;100.00;99080.38;5018339;28;21084;-84
2022/09/21 08:20:34;;;;;;;5.20;2.73;;;8.60;99.90;;;9.49;100.00;99074.22;5020868;28;20501;-84
2022/09/21 08:23:03;;;;;;;6.67;2.47;;;8.70;99.90;;;9.58;100.00;99068.88;5020209;28;20470;-84
2022/09/21 08:25:33;;;;;;;7.63;2.50;;;8.80;99.90;;;9.68;100.00;99070.59;5016945;28;20677;-85
2022/09/21 08:28:03;;;;;;;4.60;2.50;;;8.90;99.90;;;9.74;100.00;99076.00;5018131;28;20473;-84
2022/09/21 08:30:37;;;;;;;5.60;2.87;;;9.00;99.90;;;9.90;100.00;99077.84;5019806;28;20470;-84
2022/09/21 08:33:07;;;;;;;4.10;2.90;;;9.20;99.90;;;9.98;100.00;99072.66;5016795;28;20574;-84
2022/09/21 08:35:35;;;;;;;12.67;2.40;;;9.30;99.90;;;10.08;100.00;99073.34;5016456;28;21173;-82
2022/09/21 08:38:04;;;;;;;8.50;2.10;;;9.40;99.90;;;10.17;100.00;99085.50;5020590;28;20513;-81
2022/09/21 08:40:34;;;;;;;14.83;3.00;;;9.50;99.90;;;10.31;100.00;99077.03;5015762;28;20509;-82
2022/09/21 08:43:09;;;;;;;4.03;2.63;;;9.80;99.90;;;10.40;100.00;99076.09;5017420;28;20462;-81
2022/09/21 08:45:43;;;;;;;8.07;3.10;;;9.90;99.90;;;10.50;100.00;99073.34;5019345;28;21479;-81
2022/09/21 08:48:21;;;;;;;5.40;2.30;;;10.00;99.90;;;10.63;100.00;99075.47;5020180;28;20457;-82
2022/09/21 08:51:02;;;;;;;5.90;2.60;;;10.20;99.90;;;10.70;100.00;99077.28;5020608;28;20527;-82
2022/09/21 08:53:36;;;;;;;9.37;2.90;;;10.20;99.90;;;10.77;100.00;99080.88;5019895;28;20554;-81
2022/09/21 08:56:09;;;;;;;11.00;3.70;;;10.30;99.90;;;10.84;100.00;99073.19;5019143;28;20497;-82
2022/09/21 08:58:40;;;;;;;4.53;2.27;;;10.40;99.90;;;10.91;100.00;99076.78;5019095;28;20506;-81
2022/09/21 09:01:49;;;;;;;7.33;3.17;;;10.50;99.90;;;11.02;100.00;99063.38;5017971;28;20533;-80
2022/09/21 09:04:34;;;;;;;3.27;2.50;;;10.60;99.90;;;11.09;100.00;99066.97;5020784;28;20847;-81
2022/09/21 09:07:21;;;;;;;5.90;2.40;;;10.60;99.90;;;11.19;100.00;99067.63;5020106;28;20470;-81
2022/09/21 09:10:13;;;;;;;4.07;2.27;;;10.70;99.90;;;11.25;100.00;99069.56;5021498;28;20494;-81
2022/09/21 09:13:03;;;;;;;5.60;2.40;;;10.60;99.90;;;11.38;100.00;99069.06;5018150;28;20501;-81
2022/09/21 09:16:01;;;;;;;5.10;2.17;;;10.80;99.90;;;11.45;100.00;99070.06;5021273;28;20464;-81
2022/09/21 09:18:43;;;;;;;5.07;2.63;;;11.00;99.90;;;11.51;100.00;99067.56;5020535;28;20462;-81
2022/09/21 09:21:17;;;;;;;5.43;2.13;;;11.10;99.90;;;11.60;100.00;99069.19;5020762;28;20592;-81
2022/09/21 09:24:04;;;;;;;5.47;2.20;;;11.20;99.90;;;11.66;100.00;99066.88;5019599;28;20470;-81
2022/09/21 09:26:41;;;;;;;6.10;2.83;;;11.20;99.90;;;11.69;100.00;99062.13;5019328;28;20461;-81
2022/09/21 09:29:24;;;;;;;10.73;3.30;;;11.20;99.90;;;11.80;100.00;99064.38;5021850;28;20489;-81
2022/09/21 09:31:55;;;;;;;4.20;2.10;;;11.40;99.90;;;11.83;100.00;99055.38;5021573;28;20465;-82
2022/09/21 09:34:32;;;;;;;7.53;2.50;;;11.50;99.90;;;11.89;100.00;99054.69;5020254;28;20550;-82
2022/09/21 09:37:11;;;;;;;6.60;1.90;;;11.50;99.90;;;11.93;100.00;99050.75;5027742;28;20572;-81
2022/09/21 09:39:44;;;;;;;8.10;2.70;;;11.60;99.90;;;12.01;100.00;99046.28;5023591;28;20464;-81
2022/09/21 09:42:39;;;;;;;11.60;2.87;;;11.60;99.90;;;12.08;100.00;99049.84;5021401;28;20846;-81
2022/09/21 09:45:43;;;;;;;7.60;1.90;;;11.70;99.90;;;12.15;100.00;99049.97;5023404;28;21009;-81
2022/09/21 09:48:47;;;;;;;12.40;2.57;;;11.70;99.90;;;12.26;100.00;99046.97;5017406;28;20541;-81
2022/09/21 09:51:21;;;;;;;3.80;1.90;;;11.80;99.90;;;12.29;100.00;99057.09;5021031;28;20469;-80
2022/09/21 09:53:51;;;;;;;5.50;1.90;;;11.90;99.90;;;12.34;100.00;99044.31;5023325;28;20499;-82
2022/09/21 09:56:21;;;;;;;6.00;2.27;;;12.00;99.90;;;12.41;100.00;99053.13;5021446;28;20556;-81
2022/09/21 09:58:56;;;;;;;7.03;1.90;;;12.00;99.90;;;12.48;100.00;99046.19;5020372;28;20549;-81
2022/09/21 10:01:42;;;;;;;3.43;1.60;;;12.10;99.90;;;12.52;100.00;99047.47;5021983;28;20611;-82
2022/09/21 10:04:13;;;;;;;3.73;1.80;;;12.20;99.90;;;12.59;100.00;99047.59;5022864;28;20540;-81
2022/09/21 10:06:43;;;;;;;2.70;1.63;;;12.20;99.90;;;12.63;100.00;99041.78;5026257;28;20543;-83
2022/09/21 10:09:26;;;;;;;10.57;2.57;;;12.20;99.90;;;12.68;100.00;99045.72;5021826;28;20482;-81
2022/09/21 10:11:59;;;;;;;7.63;1.97;;;12.20;99.90;;;12.72;100.00;99041.75;5024742;28;20541;-81
2022/09/21 10:14:34;;;;;;;3.73;2.03;;;12.20;99.90;;;12.79;100.00;99037.44;5024765;28;20536;-82
2022/09/21 10:17:08;;;;;;;5.67;1.70;;;12.30;99.90;;;12.86;100.00;99038.34;5024852;28;20443;-82
2022/09/21 10:19:37;;;;;;;5.60;1.47;;;12.30;99.90;;;12.84;100.00;99041.13;5025896;28;20442;-82
2022/09/21 10:22:08;;;;;;;2.27;1.70;;;12.30;99.90;;;12.87;100.00;99045.25;5023676;28;20494;-82
2022/09/21 10:24:39;;;;;;;9.20;1.70;;;12.20;99.90;;;12.93;100.00;99034.03;5023649;28;20455;-81
2022/09/21 10:27:15;;;;;;;5.70;1.33;;;12.20;99.90;;;13.01;100.00;99028.72;5023441;28;20549;-82
2022/09/21 10:29:47;;;;;;;4.93;1.40;;;12.30;99.90;;;13.08;100.00;99019.91;5023053;28;20551;-82
2022/09/21 10:32:26;;;;;;;2.97;1.37;;;12.40;99.90;;;13.17;100.00;99018.06;5024321;28;20458;-81
2022/09/21 10:35:17;;;;;;;6.80;1.60;;;12.40;99.90;;;13.21;100.00;99016.72;5020583;28;20482;-82
2022/09/21 10:37:52;;;;;;;3.70;1.67;;;12.50;99.90;;;13.26;100.00;99014.38;5026415;28;20470;-82
2022/09/21 10:40:36;;;;;;;4.90;1.30;;;12.60;99.90;;;13.35;100.00;99018.56;5022748;28;20453;-82
2022/09/21 10:43:05;;;;;;;53.20;24.77;;;12.70;99.90;;;13.40;100.00;99010.94;5020114;28;20528;-81
2022/09/21 10:45:36;;;;;;;6.53;1.80;;;12.70;99.90;;;13.48;100.00;99010.84;5016922;28;20996;-82
2022/09/21 10:48:15;;;;;;;8.27;1.50;;;12.90;99.90;;;13.55;100.00;99017.00;5022421;28;20553;-81
2022/09/21 10:50:48;;;;;;;5.27;1.30;;;13.00;99.90;;;13.63;100.00;99004.78;5025006;28;20484;-81
2022/09/21 10:53:24;;;;;;;4.13;1.20;;;13.20;99.90;;;13.68;100.00;99008.47;5023967;28;20948;-81
2022/09/21 10:56:00;;;;;;;2.30;1.20;;;13.20;99.90;;;13.70;100.00;99000.41;5024786;28;20444;-81
2022/09/21 10:59:21;;;;;;;2.70;1.37;;;13.30;99.90;;;13.75;100.00;99003.28;5022343;28;20804;-82